Bendorf, Germany

07:22 AM CET die 20o February, anno 2017 (GMT +0100)
Grenzhäuser Str | | Change Station

Elev 315 ft 50.42 °N, 7.58 °E | Updated 48 seconds ago

Aequaliter Nubila
Aequaliter Nubila
43.3 °F
Feels Like 43 °F
N
0.0
Ventus Variabilis Ventus from Magis Aquilo quam Eurus
Gusts 0.0 mph

Hodie
High -- | Low -- °F
--% Chance of Precip.
Yesterday
High -- | Low -- °F
Precip. -- in
Pressio 30.12 in
Visibilitas 1.4 milia passuum
Clouds Few 100 ft
Aequaliter Nubila 200 ft
Frigus Venti 43 °F
Frigus in quo Ros apparet 42 °F
Umor 95%
Rainfall 0.00 in
Snow Depth Not available.
7:31 AM 5:56 PM
Last Quarter, 37% visible
SPECI ETSB 200539Z 23009KT 2200 -DZ BR FEW001 OVC002 04/04 Q1020 AMB YLO TEMPO RED
Pressio 30.12 in
Visibilitas 1.4 milia passuum
Clouds Few 100 ft
Aequaliter Nubila 200 ft
Frigus Venti 43 °F
Frigus in quo Ros apparet 42 °F
Umor 95%
Rainfall 0.00 in
Snow Depth Not available.
7:31 AM 5:56 PM
Last Quarter, 37% visible
SPECI ETSB 200539Z 23009KT 2200 -DZ BR FEW001 OVC002 04/04 Q1020 AMB YLO TEMPO RED

Get Your Daily Forecast Email!

Thanks for signing up!

Be on the lookout for a verification email in your inbox.

You'll start receiving the daily forecast at 8 AM.

×

10-Day Weather Forecast

×

Almanac

Astronomy

Feb. 20, 2017 Rise Set
Actual Time
Civil Twilight
Nautical Twilight
Astronomical Twilight
Moon
Length Of Visible Light
Length of Day
Tomorrow will be .
, % of the Moon is Illuminated

Today's Extremes

Country Highs Country Lows

Community

WunderPhotos

Upload Photos

1,962,540 photos uploaded!

WunderBlog® & News

Nearby

Air Quality

  Air Quality AQ Index Pollutant
Not available.

Snow Depth

Station Depth Elevation

Earthquake Activity

City Distance Mag. Time & Date
Minimum magnitude displayed is 2.5.

Coastal Water Temperatures

Locus Calor

Stations

Nearby Weather Stations

Station Location Temp Frigus Venti Frigus in quo Ros apparet Umor Ventus Precip. Elev Renovata Type